sensor_id;sensor_type;location;lat;lon;timestamp;temperature;humidity
13686;DHT22;6915;48.296;8.874;2023-01-15T00:02:21;9.70;99.90
13686;DHT22;6915;48.296;8.874;2023-01-15T00:04:53;9.70;99.90
13686;DHT22;6915;48.296;8.874;2023-01-15T00:07:23;9.80;99.90
13686;DHT22;6915;48.296;8.874;2023-01-15T00:09:53;9.80;99.90
13686;DHT22;6915;48.296;8.874;2023-01-15T00:12:22;9.80;99.90
13686;DHT22;6915;48.296;8.874;2023-01-15T00:14:53;9.80;99.90
13686;DHT22;6915;48.296;8.874;2023-01-15T00:17:24;9.90;99.90
13686;DHT22;6915;48.296;8.874;2023-01-15T00:19:55;10.00;99.90
13686;DHT22;6915;48.296;8.874;2023-01-15T00:22:25;10.00;99.90
13686;DHT22;6915;48.296;8.874;2023-01-15T00:24:54;10.00;99.90
13686;DHT22;6915;48.296;8.874;2023-01-15T00:27:40;10.00;99.90
13686;DHT22;6915;48.296;8.874;2023-01-15T00:30:13;10.00;99.90
13686;DHT22;6915;48.296;8.874;2023-01-15T00:32:43;10.00;99.90
13686;DHT22;6915;48.296;8.874;2023-01-15T00:35:15;10.00;99.90
13686;DHT22;6915;48.296;8.874;2023-01-15T00:37:48;10.00;99.90
13686;DHT22;6915;48.296;8.874;2023-01-15T00:40:19;10.00;99.90
13686;DHT22;6915;48.296;8.874;2023-01-15T00:42:48;9.90;99.90
13686;DHT22;6915;48.296;8.874;2023-01-15T00:45:17;10.00;99.90
13686;DHT22;6915;48.296;8.874;2023-01-15T00:47:46;9.90;99.90
13686;DHT22;6915;48.296;8.874;2023-01-15T00:50:19;9.90;99.90
13686;DHT22;6915;48.296;8.874;2023-01-15T00:52:48;9.90;99.90
13686;DHT22;6915;48.296;8.874;2023-01-15T00:55:17;9.90;99.90
13686;DHT22;6915;48.296;8.874;2023-01-15T00:57:48;9.90;99.90
13686;DHT22;6915;48.296;8.874;2023-01-15T01:00:16;9.80;99.90
13686;DHT22;6915;48.296;8.874;2023-01-15T01:02:45;9.80;99.90
13686;DHT22;6915;48.296;8.874;2023-01-15T01:05:15;9.80;99.90
13686;DHT22;6915;48.296;8.874;2023-01-15T01:07:46;9.70;99.90
13686;DHT22;6915;48.296;8.874;2023-01-15T01:10:16;9.70;99.90
13686;DHT22;6915;48.296;8.874;2023-01-15T01:12:45;9.70;99.90
13686;DHT22;6915;48.296;8.874;2023-01-15T01:15:21;9.60;99.90
13686;DHT22;6915;48.296;8.874;2023-01-15T01:17:50;9.60;99.90
13686;DHT22;6915;48.296;8.874;2023-01-15T01:20:20;9.60;99.90
13686;DHT22;6915;48.296;8.874;2023-01-15T01:22:50;9.60;99.90
13686;DHT22;6915;48.296;8.874;2023-01-15T01:25:20;9.60;99.90
13686;DHT22;6915;48.296;8.874;2023-01-15T01:27:50;9.50;99.90
13686;DHT22;6915;48.296;8.874;2023-01-15T01:30:19;9.50;99.90
13686;DHT22;6915;48.296;8.874;2023-01-15T01:32:48;9.40;99.90
13686;DHT22;6915;48.296;8.874;2023-01-15T01:35:15;9.40;99.90
13686;DHT22;6915;48.296;8.874;2023-01-15T01:37:48;9.40;99.90
13686;DHT22;6915;48.296;8.874;2023-01-15T01:40:18;9.40;99.90
13686;DHT22;6915;48.296;8.874;2023-01-15T01:42:47;9.30;99.90
13686;DHT22;6915;48.296;8.874;2023-01-15T01:45:19;9.40;99.90
13686;DHT22;6915;48.296;8.874;2023-01-15T01:47:51;9.40;99.90
13686;DHT22;6915;48.296;8.874;2023-01-15T01:50:22;9.40;99.90
13686;DHT22;6915;48.296;8.874;2023-01-15T01:52:56;9.40;99.90
13686;DHT22;6915;48.296;8.874;2023-01-15T01:55:27;9.50;99.90
13686;DHT22;6915;48.296;8.874;2023-01-15T01:57:59;9.50;99.90
13686;DHT22;6915;48.296;8.874;2023-01-15T02:00:32;9.50;99.90
13686;DHT22;6915;48.296;8.874;2023-01-15T02:03:03;9.60;99.90
13686;DHT22;6915;48.296;8.874;2023-01-15T02:05:36;9.60;99.90
13686;DHT22;6915;48.296;8.874;2023-01-15T02:08:08;9.70;99.90
13686;DHT22;6915;48.296;8.874;2023-01-15T02:10:37;9.70;99.90
13686;DHT22;6915;48.296;8.874;2023-01-15T02:13:09;9.80;99.90
13686;DHT22;6915;48.296;8.874;2023-01-15T02:15:42;9.80;99.90
13686;DHT22;6915;48.296;8.874;2023-01-15T02:18:17;9.90;99.90
13686;DHT22;6915;48.296;8.874;2023-01-15T02:20:51;9.90;99.90
13686;DHT22;6915;48.296;8.874;2023-01-15T02:23:32;9.90;99.90
13686;DHT22;6915;48.296;8.874;2023-01-15T02:29:15;9.80;99.90
13686;DHT22;6915;48.296;8.874;2023-01-15T02:31:48;9.90;99.90
13686;DHT22;6915;48.296;8.874;2023-01-15T02:34:22;9.90;99.90
13686;DHT22;6915;48.296;8.874;2023-01-15T02:36:59;9.80;99.90
13686;DHT22;6915;48.296;8.874;2023-01-15T02:39:29;9.70;99.90
13686;DHT22;6915;48.296;8.874;2023-01-15T02:42:02;9.70;99.90
13686;DHT22;6915;48.296;8.874;2023-01-15T02:44:36;9.70;99.90
13686;DHT22;6915;48.296;8.874;2023-01-15T02:47:07;9.70;99.90
13686;DHT22;6915;48.296;8.874;2023-01-15T02:49:39;9.80;99.90
13686;DHT22;6915;48.296;8.874;2023-01-15T02:52:12;9.70;99.90
13686;DHT22;6915;48.296;8.874;2023-01-15T02:54:51;9.80;99.90
13686;DHT22;6915;48.296;8.874;2023-01-15T02:57:20;9.70;99.90
13686;DHT22;6915;48.296;8.874;2023-01-15T02:59:54;9.60;99.90
13686;DHT22;6915;48.296;8.874;2023-01-15T03:02:26;9.60;99.90
13686;DHT22;6915;48.296;8.874;2023-01-15T03:05:02;9.60;99.90
13686;DHT22;6915;48.296;8.874;2023-01-15T03:07:39;9.50;99.90
13686;DHT22;6915;48.296;8.874;2023-01-15T03:10:10;9.50;99.90
13686;DHT22;6915;48.296;8.874;2023-01-15T03:12:45;9.40;99.90
13686;DHT22;6915;48.296;8.874;2023-01-15T03:15:37;9.50;99.90
13686;DHT22;6915;48.296;8.874;2023-01-15T03:18:25;9.50;99.90
13686;DHT22;6915;48.296;8.874;2023-01-15T03:20:59;9.50;99.90
13686;DHT22;6915;48.296;8.874;2023-01-15T03:23:29;9.50;99.90
13686;DHT22;6915;48.296;8.874;2023-01-15T03:25:59;9.50;99.90
13686;DHT22;6915;48.296;8.874;2023-01-15T03:28:32;9.40;99.90
13686;DHT22;6915;48.296;8.874;2023-01-15T03:31:04;9.50;99.90
13686;DHT22;6915;48.296;8.874;2023-01-15T03:33:34;9.40;99.90
13686;DHT22;6915;48.296;8.874;2023-01-15T03:36:03;9.40;99.90
13686;DHT22;6915;48.296;8.874;2023-01-15T03:38:34;9.40;99.90
13686;DHT22;6915;48.296;8.874;2023-01-15T03:41:10;9.30;99.90
13686;DHT22;6915;48.296;8.874;2023-01-15T03:43:47;9.30;99.90
13686;DHT22;6915;48.296;8.874;2023-01-15T03:46:30;9.30;99.90
13686;DHT22;6915;48.296;8.874;2023-01-15T03:49:08;9.30;99.90
13686;DHT22;6915;48.296;8.874;2023-01-15T03:51:41;9.30;99.90
13686;DHT22;6915;48.296;8.874;2023-01-15T03:54:16;9.20;99.90
13686;DHT22;6915;48.296;8.874;2023-01-15T03:56:55;9.10;99.90
13686;DHT22;6915;48.296;8.874;2023-01-15T03:59:29;9.10;99.90
13686;DHT22;6915;48.296;8.874;2023-01-15T04:02:03;9.10;99.90
13686;DHT22;6915;48.296;8.874;2023-01-15T04:04:34;9.10;99.90
13686;DHT22;6915;48.296;8.874;2023-01-15T04:07:04;9.10;99.90
13686;DHT22;6915;48.296;8.874;2023-01-15T04:09:38;9.10;99.90
13686;DHT22;6915;48.296;8.874;2023-01-15T04:12:08;9.10;99.90
13686;DHT22;6915;48.296;8.874;2023-01-15T04:14:38;9.10;99.90
13686;DHT22;6915;48.296;8.874;2023-01-15T04:17:09;9.10;99.90
13686;DHT22;6915;48.296;8.874;2023-01-15T04:19:38;9.10;99.90
13686;DHT22;6915;48.296;8.874;2023-01-15T04:22:08;9.10;99.90
13686;DHT22;6915;48.296;8.874;2023-01-15T04:24:37;9.20;99.90
13686;DHT22;6915;48.296;8.874;2023-01-15T04:27:06;9.20;99.90
13686;DHT22;6915;48.296;8.874;2023-01-15T04:29:35;9.20;99.90
13686;DHT22;6915;48.296;8.874;2023-01-15T04:32:04;9.20;99.90
13686;DHT22;6915;48.296;8.874;2023-01-15T04:34:34;9.30;99.90
13686;DHT22;6915;48.296;8.874;2023-01-15T04:37:03;9.30;99.90
13686;DHT22;6915;48.296;8.874;2023-01-15T04:39:32;9.30;99.90
13686;DHT22;6915;48.296;8.874;2023-01-15T04:42:01;9.40;99.90
13686;DHT22;6915;48.296;8.874;2023-01-15T04:44:48;9.40;99.90
13686;DHT22;6915;48.296;8.874;2023-01-15T04:47:16;9.40;99.90
13686;DHT22;6915;48.296;8.874;2023-01-15T04:49:46;9.30;99.90
13686;DHT22;6915;48.296;8.874;2023-01-15T04:52:15;9.50;99.90
13686;DHT22;6915;48.296;8.874;2023-01-15T04:54:44;9.40;99.90
13686;DHT22;6915;48.296;8.874;2023-01-15T04:57:13;9.30;99.90
13686;DHT22;6915;48.296;8.874;2023-01-15T04:59:41;9.30;99.90
13686;DHT22;6915;48.296;8.874;2023-01-15T05:02:10;9.20;99.90
13686;DHT22;6915;48.296;8.874;2023-01-15T05:04:39;9.20;99.90
13686;DHT22;6915;48.296;8.874;2023-01-15T05:07:10;9.20;99.90
13686;DHT22;6915;48.296;8.874;2023-01-15T05:09:39;9.10;99.90
13686;DHT22;6915;48.296;8.874;2023-01-15T05:12:08;9.20;99.90
13686;DHT22;6915;48.296;8.874;2023-01-15T05:14:38;9.20;99.90
13686;DHT22;6915;48.296;8.874;2023-01-15T05:17:07;9.10;99.90
13686;DHT22;6915;48.296;8.874;2023-01-15T05:19:36;9.20;99.90
13686;DHT22;6915;48.296;8.874;2023-01-15T05:22:05;9.30;99.90
13686;DHT22;6915;48.296;8.874;2023-01-15T05:24:36;9.30;99.90
13686;DHT22;6915;48.296;8.874;2023-01-15T05:27:05;9.30;99.90
13686;DHT22;6915;48.296;8.874;2023-01-15T05:29:33;9.30;99.90
13686;DHT22;6915;48.296;8.874;2023-01-15T05:32:03;9.20;99.90
13686;DHT22;6915;48.296;8.874;2023-01-15T05:34:32;9.20;99.90
13686;DHT22;6915;48.296;8.874;2023-01-15T05:37:01;9.20;99.90
13686;DHT22;6915;48.296;8.874;2023-01-15T05:39:31;9.30;99.90
13686;DHT22;6915;48.296;8.874;2023-01-15T05:42:01;9.20;99.90
13686;DHT22;6915;48.296;8.874;2023-01-15T05:44:31;9.30;99.90
13686;DHT22;6915;48.296;8.874;2023-01-15T05:47:01;9.30;99.90
13686;DHT22;6915;48.296;8.874;2023-01-15T05:49:32;9.20;99.90
13686;DHT22;6915;48.296;8.874;2023-01-15T05:52:03;9.20;99.90
13686;DHT22;6915;48.296;8.874;2023-01-15T05:54:34;9.20;99.90
13686;DHT22;6915;48.296;8.874;2023-01-15T05:57:05;9.20;99.90
13686;DHT22;6915;48.296;8.874;2023-01-15T05:59:34;9.20;99.90
13686;DHT22;6915;48.296;8.874;2023-01-15T06:02:04;9.20;99.90
13686;DHT22;6915;48.296;8.874;2023-01-15T06:04:33;9.20;99.90
13686;DHT22;6915;48.296;8.874;2023-01-15T06:07:02;9.20;99.90
13686;DHT22;6915;48.296;8.874;2023-01-15T06:09:31;9.20;99.90
13686;DHT22;6915;48.296;8.874;2023-01-15T06:11:59;9.20;99.90
13686;DHT22;6915;48.296;8.874;2023-01-15T06:14:30;9.20;99.90
13686;DHT22;6915;48.296;8.874;2023-01-15T06:17:00;9.20;99.90
13686;DHT22;6915;48.296;8.874;2023-01-15T06:19:29;9.20;99.90
13686;DHT22;6915;48.296;8.874;2023-01-15T06:21:58;9.10;99.90
13686;DHT22;6915;48.296;8.874;2023-01-15T06:24:27;9.10;99.90
13686;DHT22;6915;48.296;8.874;2023-01-15T06:26:56;9.10;99.90
13686;DHT22;6915;48.296;8.874;2023-01-15T06:29:26;9.10;99.90
13686;DHT22;6915;48.296;8.874;2023-01-15T06:31:57;9.00;99.90
13686;DHT22;6915;48.296;8.874;2023-01-15T06:34:27;9.00;99.90
13686;DHT22;6915;48.296;8.874;2023-01-15T06:36:56;8.90;99.90
13686;DHT22;6915;48.296;8.874;2023-01-15T06:39:25;8.90;99.90
13686;DHT22;6915;48.296;8.874;2023-01-15T06:41:54;8.90;99.90
13686;DHT22;6915;48.296;8.874;2023-01-15T06:44:41;8.90;99.90
13686;DHT22;6915;48.296;8.874;2023-01-15T06:47:29;8.80;99.90
13686;DHT22;6915;48.296;8.874;2023-01-15T06:49:59;8.80;99.90
13686;DHT22;6915;48.296;8.874;2023-01-15T06:52:30;8.80;99.90
13686;DHT22;6915;48.296;8.874;2023-01-15T06:54:59;8.80;99.90
13686;DHT22;6915;48.296;8.874;2023-01-15T06:57:28;8.80;99.90
13686;DHT22;6915;48.296;8.874;2023-01-15T06:59:58;8.80;99.90
13686;DHT22;6915;48.296;8.874;2023-01-15T07:02:28;8.70;99.90
13686;DHT22;6915;48.296;8.874;2023-01-15T07:04:58;8.70;99.90
13686;DHT22;6915;48.296;8.874;2023-01-15T07:07:29;8.70;99.90
13686;DHT22;6915;48.296;8.874;2023-01-15T07:09:58;8.70;99.90
13686;DHT22;6915;48.296;8.874;2023-01-15T07:12:27;8.70;99.90
13686;DHT22;6915;48.296;8.874;2023-01-15T07:14:57;8.60;99.90
13686;DHT22;6915;48.296;8.874;2023-01-15T07:17:27;8.60;99.90
13686;DHT22;6915;48.296;8.874;2023-01-15T07:19:57;8.60;99.90
13686;DHT22;6915;48.296;8.874;2023-01-15T07:22:26;8.60;99.90
13686;DHT22;6915;48.296;8.874;2023-01-15T07:24:56;8.60;99.90
13686;DHT22;6915;48.296;8.874;2023-01-15T07:27:25;8.60;99.90
13686;DHT22;6915;48.296;8.874;2023-01-15T07:29:54;8.50;99.90
13686;DHT22;6915;48.296;8.874;2023-01-15T07:32:23;7.90;99.90
13686;DHT22;6915;48.296;8.874;2023-01-15T07:34:54;7.40;99.90
13686;DHT22;6915;48.296;8.874;2023-01-15T07:37:24;7.00;99.90
13686;DHT22;6915;48.296;8.874;2023-01-15T07:39:53;6.90;99.90
13686;DHT22;6915;48.296;8.874;2023-01-15T07:42:24;6.80;99.90
13686;DHT22;6915;48.296;8.874;2023-01-15T07:45:11;6.70;99.90
13686;DHT22;6915;48.296;8.874;2023-01-15T07:47:57;6.60;99.90
13686;DHT22;6915;48.296;8.874;2023-01-15T07:50:45;6.50;99.90
13686;DHT22;6915;48.296;8.874;2023-01-15T07:53:14;6.40;99.90
13686;DHT22;6915;48.296;8.874;2023-01-15T07:55:44;6.40;99.90
13686;DHT22;6915;48.296;8.874;2023-01-15T07:58:13;6.30;99.90
13686;DHT22;6915;48.296;8.874;2023-01-15T08:00:42;6.20;99.90
13686;DHT22;6915;48.296;8.874;2023-01-15T08:03:12;6.20;99.90
13686;DHT22;6915;48.296;8.874;2023-01-15T08:05:41;6.20;99.90
13686;DHT22;6915;48.296;8.874;2023-01-15T08:08:17;6.10;99.90
13686;DHT22;6915;48.296;8.874;2023-01-15T08:10:46;6.00;99.90
13686;DHT22;6915;48.296;8.874;2023-01-15T08:13:29;5.90;99.90
13686;DHT22;6915;48.296;8.874;2023-01-15T08:16:18;5.80;99.90
13686;DHT22;6915;48.296;8.874;2023-01-15T08:18:48;5.80;99.90
13686;DHT22;6915;48.296;8.874;2023-01-15T08:21:18;5.80;99.90
13686;DHT22;6915;48.296;8.874;2023-01-15T08:23:49;5.80;99.90
13686;DHT22;6915;48.296;8.874;2023-01-15T08:26:18;5.70;99.90
13686;DHT22;6915;48.296;8.874;2023-01-15T08:28:48;5.70;99.90
13686;DHT22;6915;48.296;8.874;2023-01-15T08:31:16;5.60;99.90
13686;DHT22;6915;48.296;8.874;2023-01-15T08:33:46;5.70;99.90
13686;DHT22;6915;48.296;8.874;2023-01-15T08:36:16;5.50;99.90
13686;DHT22;6915;48.296;8.874;2023-01-15T08:38:47;5.50;99.90
13686;DHT22;6915;48.296;8.874;2023-01-15T08:41:18;5.50;99.90
13686;DHT22;6915;48.296;8.874;2023-01-15T08:43:47;5.50;99.90
13686;DHT22;6915;48.296;8.874;2023-01-15T08:46:17;5.50;99.90
13686;DHT22;6915;48.296;8.874;2023-01-15T08:48:47;5.50;99.90
13686;DHT22;6915;48.296;8.874;2023-01-15T08:51:17;5.50;99.90
13686;DHT22;6915;48.296;8.874;2023-01-15T08:53:47;5.50;99.90
13686;DHT22;6915;48.296;8.874;2023-01-15T08:56:18;5.40;99.90
13686;DHT22;6915;48.296;8.874;2023-01-15T08:58:47;5.50;99.90
13686;DHT22;6915;48.296;8.874;2023-01-15T09:01:18;5.50;99.90
13686;DHT22;6915;48.296;8.874;2023-01-15T09:03:47;5.50;99.90
13686;DHT22;6915;48.296;8.874;2023-01-15T09:06:17;5.60;99.90
13686;DHT22;6915;48.296;8.874;2023-01-15T09:08:46;5.60;99.90
13686;DHT22;6915;48.296;8.874;2023-01-15T09:11:14;5.50;99.90
13686;DHT22;6915;48.296;8.874;2023-01-15T09:13:46;5.50;99.90
13686;DHT22;6915;48.296;8.874;2023-01-15T09:16:19;5.50;99.90
13686;DHT22;6915;48.296;8.874;2023-01-15T09:18:50;5.50;99.90
13686;DHT22;6915;48.296;8.874;2023-01-15T09:21:20;5.50;99.90
13686;DHT22;6915;48.296;8.874;2023-01-15T09:23:49;5.50;99.90
13686;DHT22;6915;48.296;8.874;2023-01-15T09:26:28;5.40;99.90
13686;DHT22;6915;48.296;8.874;2023-01-15T09:28:59;5.50;99.90
13686;DHT22;6915;48.296;8.874;2023-01-15T09:31:29;5.50;99.90
13686;DHT22;6915;48.296;8.874;2023-01-15T09:33:59;5.40;99.90
13686;DHT22;6915;48.296;8.874;2023-01-15T09:36:31;5.30;99.90
13686;DHT22;6915;48.296;8.874;2023-01-15T09:39:01;5.30;99.90
13686;DHT22;6915;48.296;8.874;2023-01-15T09:41:38;5.20;99.90
13686;DHT22;6915;48.296;8.874;2023-01-15T09:44:36;5.20;99.90
13686;DHT22;6915;48.296;8.874;2023-01-15T09:47:11;5.10;99.90
13686;DHT22;6915;48.296;8.874;2023-01-15T09:49:50;5.10;99.90
13686;DHT22;6915;48.296;8.874;2023-01-15T09:52:28;4.90;99.90
13686;DHT22;6915;48.296;8.874;2023-01-15T09:55:06;4.80;99.90
13686;DHT22;6915;48.296;8.874;2023-01-15T09:57:39;4.80;99.90
13686;DHT22;6915;48.296;8.874;2023-01-15T10:00:15;4.80;99.90
13686;DHT22;6915;48.296;8.874;2023-01-15T10:02:49;4.70;99.90
13686;DHT22;6915;48.296;8.874;2023-01-15T10:05:21;4.80;99.90
13686;DHT22;6915;48.296;8.874;2023-01-15T10:07:56;4.80;99.90
13686;DHT22;6915;48.296;8.874;2023-01-15T10:10:30;4.70;99.90
13686;DHT22;6915;48.296;8.874;2023-01-15T10:13:05;4.70;99.90
13686;DHT22;6915;48.296;8.874;2023-01-15T10:15:43;4.70;99.90
13686;DHT22;6915;48.296;8.874;2023-01-15T10:18:15;4.60;99.90
13686;DHT22;6915;48.296;8.874;2023-01-15T10:21:00;4.40;99.90
13686;DHT22;6915;48.296;8.874;2023-01-15T10:23:35;4.50;99.90
13686;DHT22;6915;48.296;8.874;2023-01-15T10:26:16;4.40;99.90
13686;DHT22;6915;48.296;8.874;2023-01-15T10:29:04;4.40;99.90
13686;DHT22;6915;48.296;8.874;2023-01-15T10:31:50;4.30;99.90
13686;DHT22;6915;48.296;8.874;2023-01-15T10:34:57;4.30;99.90
13686;DHT22;6915;48.296;8.874;2023-01-15T10:37:33;4.30;99.90
13686;DHT22;6915;48.296;8.874;2023-01-15T10:40:28;4.30;99.90
13686;DHT22;6915;48.296;8.874;2023-01-15T10:43:05;4.30;99.90
13686;DHT22;6915;48.296;8.874;2023-01-15T10:45:39;4.30;99.90
13686;DHT22;6915;48.296;8.874;2023-01-15T10:48:14;4.30;99.90
13686;DHT22;6915;48.296;8.874;2023-01-15T10:50:46;4.30;99.90
13686;DHT22;6915;48.296;8.874;2023-01-15T10:53:16;4.30;99.90
13686;DHT22;6915;48.296;8.874;2023-01-15T10:55:55;4.20;99.90
13686;DHT22;6915;48.296;8.874;2023-01-15T10:58:32;4.20;99.90
13686;DHT22;6915;48.296;8.874;2023-01-15T11:01:05;4.20;99.90
13686;DHT22;6915;48.296;8.874;2023-01-15T11:03:38;4.10;99.90
13686;DHT22;6915;48.296;8.874;2023-01-15T11:06:12;4.20;99.90
13686;DHT22;6915;48.296;8.874;2023-01-15T11:08:45;4.10;99.90
13686;DHT22;6915;48.296;8.874;2023-01-15T11:11:20;4.10;99.90
13686;DHT22;6915;48.296;8.874;2023-01-15T11:14:11;4.00;99.90
13686;DHT22;6915;48.296;8.874;2023-01-15T11:16:58;4.00;99.90
13686;DHT22;6915;48.296;8.874;2023-01-15T11:19:50;4.00;99.90
13686;DHT22;6915;48.296;8.874;2023-01-15T11:22:21;4.00;99.90
13686;DHT22;6915;48.296;8.874;2023-01-15T11:24:52;4.00;99.90
13686;DHT22;6915;48.296;8.874;2023-01-15T11:27:25;4.00;99.90
13686;DHT22;6915;48.296;8.874;2023-01-15T11:29:57;4.00;99.90
13686;DHT22;6915;48.296;8.874;2023-01-15T11:32:31;3.90;99.90
13686;DHT22;6915;48.296;8.874;2023-01-15T11:35:14;3.90;99.90
13686;DHT22;6915;48.296;8.874;2023-01-15T11:37:45;3.80;99.90
13686;DHT22;6915;48.296;8.874;2023-01-15T11:40:18;3.70;99.90
13686;DHT22;6915;48.296;8.874;2023-01-15T11:42:50;3.70;99.90
13686;DHT22;6915;48.296;8.874;2023-01-15T11:45:47;3.60;99.90
13686;DHT22;6915;48.296;8.874;2023-01-15T11:48:45;3.60;99.90
13686;DHT22;6915;48.296;8.874;2023-01-15T11:51:37;3.60;99.90
13686;DHT22;6915;48.296;8.874;2023-01-15T11:54:12;3.50;99.90
13686;DHT22;6915;48.296;8.874;2023-01-15T11:56:46;3.50;99.90
13686;DHT22;6915;48.296;8.874;2023-01-15T11:59:17;3.50;99.90
13686;DHT22;6915;48.296;8.874;2023-01-15T12:01:50;3.40;99.90
13686;DHT22;6915;48.296;8.874;2023-01-15T12:04:29;3.40;99.90
13686;DHT22;6915;48.296;8.874;2023-01-15T12:07:04;3.30;99.90
13686;DHT22;6915;48.296;8.874;2023-01-15T12:09:47;3.30;99.90
13686;DHT22;6915;48.296;8.874;2023-01-15T12:12:25;3.30;99.90
13686;DHT22;6915;48.296;8.874;2023-01-15T12:15:28;3.30;99.90
13686;DHT22;6915;48.296;8.874;2023-01-15T12:18:20;3.30;99.90
13686;DHT22;6915;48.296;8.874;2023-01-15T12:20:57;3.30;99.90
13686;DHT22;6915;48.296;8.874;2023-01-15T12:23:52;3.20;99.90
13686;DHT22;6915;48.296;8.874;2023-01-15T12:26:25;3.20;99.90
13686;DHT22;6915;48.296;8.874;2023-01-15T12:28:59;3.20;99.90
13686;DHT22;6915;48.296;8.874;2023-01-15T12:31:32;3.30;99.90
13686;DHT22;6915;48.296;8.874;2023-01-15T12:34:10;3.20;99.90
13686;DHT22;6915;48.296;8.874;2023-01-15T12:36:46;3.30;99.90
13686;DHT22;6915;48.296;8.874;2023-01-15T12:39:20;3.30;99.90
13686;DHT22;6915;48.296;8.874;2023-01-15T12:41:56;3.40;99.90
13686;DHT22;6915;48.296;8.874;2023-01-15T12:44:44;3.30;99.90
13686;DHT22;6915;48.296;8.874;2023-01-15T12:47:33;3.20;99.90
13686;DHT22;6915;48.296;8.874;2023-01-15T12:50:10;3.20;99.90
13686;DHT22;6915;48.296;8.874;2023-01-15T12:52:45;3.20;99.90
13686;DHT22;6915;48.296;8.874;2023-01-15T12:55:21;3.10;99.90
13686;DHT22;6915;48.296;8.874;2023-01-15T12:57:52;3.10;99.90
13686;DHT22;6915;48.296;8.874;2023-01-15T13:00:26;3.20;99.90
13686;DHT22;6915;48.296;8.874;2023-01-15T13:03:00;3.10;99.90
13686;DHT22;6915;48.296;8.874;2023-01-15T13:05:35;3.10;99.90
13686;DHT22;6915;48.296;8.874;2023-01-15T13:08:09;3.10;99.90
13686;DHT22;6915;48.296;8.874;2023-01-15T13:10:44;3.10;99.90
13686;DHT22;6915;48.296;8.874;2023-01-15T13:13:18;3.10;99.90
13686;DHT22;6915;48.296;8.874;2023-01-15T13:16:08;3.00;99.90
13686;DHT22;6915;48.296;8.874;2023-01-15T13:18:48;3.00;99.90
13686;DHT22;6915;48.296;8.874;2023-01-15T13:21:19;3.00;99.90
13686;DHT22;6915;48.296;8.874;2023-01-15T13:24:08;3.00;99.90
13686;DHT22;6915;48.296;8.874;2023-01-15T13:26:52;3.00;99.90
13686;DHT22;6915;48.296;8.874;2023-01-15T16:20:19;2.30;99.90
13686;DHT22;6915;48.296;8.874;2023-01-15T16:22:54;2.30;99.90
13686;DHT22;6915;48.296;8.874;2023-01-15T16:25:25;2.20;99.90
13686;DHT22;6915;48.296;8.874;2023-01-15T16:27:58;2.20;99.90
13686;DHT22;6915;48.296;8.874;2023-01-15T16:30:29;2.20;99.90
13686;DHT22;6915;48.296;8.874;2023-01-15T16:33:02;2.10;99.90
13686;DHT22;6915;48.296;8.874;2023-01-15T16:35:36;2.10;99.90
13686;DHT22;6915;48.296;8.874;2023-01-15T16:38:13;2.20;99.90
13686;DHT22;6915;48.296;8.874;2023-01-15T16:40:47;2.20;99.90
13686;DHT22;6915;48.296;8.874;2023-01-15T16:43:19;2.20;99.90
13686;DHT22;6915;48.296;8.874;2023-01-15T16:45:59;2.20;99.90
13686;DHT22;6915;48.296;8.874;2023-01-15T16:48:30;2.20;99.90
13686;DHT22;6915;48.296;8.874;2023-01-15T16:51:30;2.10;99.90
13686;DHT22;6915;48.296;8.874;2023-01-15T16:54:00;2.10;99.90
13686;DHT22;6915;48.296;8.874;2023-01-15T16:56:50;2.10;99.90
13686;DHT22;6915;48.296;8.874;2023-01-15T16:59:55;2.00;99.90
13686;DHT22;6915;48.296;8.874;2023-01-15T17:02:32;2.00;99.90
13686;DHT22;6915;48.296;8.874;2023-01-15T17:05:02;2.00;99.90
13686;DHT22;6915;48.296;8.874;2023-01-15T17:07:42;2.00;99.90
13686;DHT22;6915;48.296;8.874;2023-01-15T17:10:22;2.00;99.90
13686;DHT22;6915;48.296;8.874;2023-01-15T17:12:52;2.00;99.90
13686;DHT22;6915;48.296;8.874;2023-01-15T17:15:42;2.00;99.90
13686;DHT22;6915;48.296;8.874;2023-01-15T17:18:27;2.10;99.90
13686;DHT22;6915;48.296;8.874;2023-01-15T17:20:59;1.90;99.90
13686;DHT22;6915;48.296;8.874;2023-01-15T17:23:32;1.90;99.90
13686;DHT22;6915;48.296;8.874;2023-01-15T17:26:04;1.90;99.90
13686;DHT22;6915;48.296;8.874;2023-01-15T17:28:33;1.80;99.90
13686;DHT22;6915;48.296;8.874;2023-01-15T17:31:03;1.80;99.90
13686;DHT22;6915;48.296;8.874;2023-01-15T17:33:33;1.80;99.90
13686;DHT22;6915;48.296;8.874;2023-01-15T17:36:03;1.90;99.90
13686;DHT22;6915;48.296;8.874;2023-01-15T17:38:35;1.90;99.90
13686;DHT22;6915;48.296;8.874;2023-01-15T17:41:07;1.80;99.90
13686;DHT22;6915;48.296;8.874;2023-01-15T17:43:37;1.90;99.90
13686;DHT22;6915;48.296;8.874;2023-01-15T17:46:08;1.90;99.90
13686;DHT22;6915;48.296;8.874;2023-01-15T17:48:38;1.90;99.90
13686;DHT22;6915;48.296;8.874;2023-01-15T17:51:11;1.90;99.90
13686;DHT22;6915;48.296;8.874;2023-01-15T17:53:43;1.90;99.90
13686;DHT22;6915;48.296;8.874;2023-01-15T17:56:13;1.90;99.90
13686;DHT22;6915;48.296;8.874;2023-01-15T17:58:58;1.80;99.90
13686;DHT22;6915;48.296;8.874;2023-01-15T18:01:47;1.80;99.90
13686;DHT22;6915;48.296;8.874;2023-01-15T18:04:38;1.70;99.90
13686;DHT22;6915;48.296;8.874;2023-01-15T18:07:29;1.70;99.90
13686;DHT22;6915;48.296;8.874;2023-01-15T18:10:02;1.70;99.90
13686;DHT22;6915;48.296;8.874;2023-01-15T18:12:32;1.60;99.90
13686;DHT22;6915;48.296;8.874;2023-01-15T18:15:02;1.60;99.90
13686;DHT22;6915;48.296;8.874;2023-01-15T18:17:31;1.60;99.90
13686;DHT22;6915;48.296;8.874;2023-01-15T18:20:01;1.60;99.90
13686;DHT22;6915;48.296;8.874;2023-01-15T18:22:30;1.60;99.90
13686;DHT22;6915;48.296;8.874;2023-01-15T18:25:02;1.60;99.90
13686;DHT22;6915;48.296;8.874;2023-01-15T18:27:33;1.60;99.90
13686;DHT22;6915;48.296;8.874;2023-01-15T18:30:03;1.60;99.90
13686;DHT22;6915;48.296;8.874;2023-01-15T18:32:37;1.60;99.90
13686;DHT22;6915;48.296;8.874;2023-01-15T18:35:06;1.70;99.90
13686;DHT22;6915;48.296;8.874;2023-01-15T18:37:34;1.70;99.90
13686;DHT22;6915;48.296;8.874;2023-01-15T18:40:07;1.70;99.90
13686;DHT22;6915;48.296;8.874;2023-01-15T18:42:37;1.70;99.90
13686;DHT22;6915;48.296;8.874;2023-01-15T18:45:22;1.80;99.90
13686;DHT22;6915;48.296;8.874;2023-01-15T18:48:20;1.80;99.90
13686;DHT22;6915;48.296;8.874;2023-01-15T18:50:52;1.80;99.90
13686;DHT22;6915;48.296;8.874;2023-01-15T18:53:23;1.90;99.90
13686;DHT22;6915;48.296;8.874;2023-01-15T18:56:29;1.90;99.90
13686;DHT22;6915;48.296;8.874;2023-01-15T20:19:10;1.30;99.90
13686;DHT22;6915;48.296;8.874;2023-01-15T20:21:39;1.40;99.90
13686;DHT22;6915;48.296;8.874;2023-01-15T20:24:10;1.40;99.90
13686;DHT22;6915;48.296;8.874;2023-01-15T20:26:40;1.50;99.90
13686;DHT22;6915;48.296;8.874;2023-01-15T20:29:10;1.40;99.90
13686;DHT22;6915;48.296;8.874;2023-01-15T20:31:39;1.50;99.90
13686;DHT22;6915;48.296;8.874;2023-01-15T20:34:09;1.40;99.90
13686;DHT22;6915;48.296;8.874;2023-01-15T20:36:38;1.50;99.90
13686;DHT22;6915;48.296;8.874;2023-01-15T20:39:11;1.60;99.90
13686;DHT22;6915;48.296;8.874;2023-01-15T20:41:42;1.60;99.90
13686;DHT22;6915;48.296;8.874;2023-01-15T20:44:30;1.70;99.90
13686;DHT22;6915;48.296;8.874;2023-01-15T20:47:17;1.60;99.90
13686;DHT22;6915;48.296;8.874;2023-01-15T20:50:06;1.50;99.90
13686;DHT22;6915;48.296;8.874;2023-01-15T20:52:38;1.60;99.90
13686;DHT22;6915;48.296;8.874;2023-01-15T20:55:08;1.50;99.90
13686;DHT22;6915;48.296;8.874;2023-01-15T20:57:40;1.50;99.90
13686;DHT22;6915;48.296;8.874;2023-01-15T21:00:10;1.40;99.90